Time;durP1;ratioP1;P1;durP2;ratioP2;P2;SDS_P1;SDS_P2;PMS_P1;PMS_P2;Temp;Humidity;BMP_temperature;BMP_pressure;BME280_temperature;BME280_humidity;BME280_pressure;Samples;Min_cycle;Max_cycle;Signal;HPM_P1;HPM_P2
2023/03/13 00:01:58;;;;;;;0.50;0.50;;;;;;;4.50;61.62;97220.97;5006157;28;20045;-67
2023/03/13 00:04:24;;;;;;;0.43;0.43;;;;;;;4.68;61.02;97238.97;5005500;28;20501;-66
2023/03/13 00:06:51;;;;;;;0.40;0.40;;;;;;;4.67;61.47;97247.53;5005518;28;20092;-59
2023/03/13 00:09:17;;;;;;;0.50;0.50;;;;;;;4.65;61.69;97249.81;5005011;28;20085;-59
2023/03/13 00:11:46;;;;;;;0.50;0.50;;;;;;;4.59;61.77;97256.59;5005445;28;20061;-60
2023/03/13 00:14:12;;;;;;;0.40;0.40;;;;;;;4.12;60.84;97158.97;5005196;28;20050;-59
2023/03/13 00:16:39;;;;;;;0.40;0.40;;;;;;;4.31;60.87;97198.63;5020523;28;20058;-59
2023/03/13 00:19:07;;;;;;;0.40;0.40;;;;;;;4.65;60.88;97255.28;5009673;28;20093;-59
2023/03/13 00:21:36;;;;;;;0.40;0.40;;;;;;;4.57;61.35;97258.84;5003923;28;20103;-66
2023/03/13 00:24:03;;;;;;;0.43;0.43;;;;;;;4.45;62.30;97261.47;5005923;28;20421;-61
2023/03/13 00:26:30;;;;;;;0.40;0.40;;;;;;;4.30;61.95;97265.53;5005055;28;20597;-59
2023/03/13 00:28:56;;;;;;;0.50;0.50;;;;;;;4.32;62.86;97266.03;5004846;28;20064;-66
2023/03/13 00:31:30;;;;;;;0.47;0.47;;;;;;;4.22;63.32;97263.59;5020228;28;20054;-67
2023/03/13 00:34:00;;;;;;;0.50;0.50;;;;;;;4.15;63.63;97263.31;5005584;28;20051;-66
2023/03/13 00:36:32;;;;;;;0.40;0.40;;;;;;;3.96;64.18;97251.84;5016296;28;20404;-67
2023/03/13 00:38:59;;;;;;;0.40;0.40;;;;;;;3.95;63.56;97252.97;5004854;28;20046;-58
2023/03/13 00:41:29;;;;;;;0.45;0.45;;;;;;;3.80;64.45;97250.72;4957829;28;1373624;-60
2023/03/13 00:43:55;;;;;;;0.40;0.40;;;;;;;3.68;64.93;97260.72;5006174;28;20053;-66
2023/03/13 00:46:25;;;;;;;0.40;0.40;;;;;;;3.55;65.60;97257.00;5005951;28;20483;-66
2023/03/13 00:48:52;;;;;;;0.40;0.40;;;;;;;3.45;65.98;97260.03;5005889;28;20054;-60
2023/03/13 00:51:22;;;;;;;0.40;0.40;;;;;;;3.09;66.43;97218.41;5005846;28;20108;-60
2023/03/13 00:53:49;;;;;;;0.40;0.40;;;;;;;3.38;65.86;97248.75;5011024;28;20058;-59
2023/03/13 00:56:17;;;;;;;0.40;0.40;;;;;;;3.27;66.21;97246.63;5000552;28;20559;-59
2023/03/13 00:58:45;;;;;;;0.40;0.40;;;;;;;2.67;66.04;97156.19;4986137;28;20484;-66
2023/03/13 01:01:24;;;;;;;0.40;0.40;;;;;;;3.09;66.56;97256.72;4985447;28;20050;-59
2023/03/13 01:03:57;;;;;;;0.40;0.40;;;;;;;2.93;66.90;97252.78;4986285;28;20082;-58
2023/03/13 01:06:25;;;;;;;;;;;;;;;2.92;67.24;97245.72;4984766;28;20132;-59
2023/03/13 01:08:52;;;;;;;0.40;0.40;;;;;;;2.73;68.31;97253.34;4982379;28;20024;-60
2023/03/13 01:11:23;;;;;;;0.40;0.40;;;;;;;2.76;67.89;97258.19;4983896;28;20116;-66
2023/03/13 01:14:00;;;;;;;0.40;0.40;;;;;;;2.67;68.24;97239.00;4984088;28;20053;-59
2023/03/13 01:16:28;;;;;;;0.40;0.40;;;;;;;2.71;68.34;97250.94;4998836;28;20125;-66
2023/03/13 01:18:59;;;;;;;0.40;0.40;;;;;;;2.73;68.80;97265.09;4983994;28;20109;-66
2023/03/13 01:21:26;;;;;;;0.40;0.40;;;;;;;2.21;68.78;97196.81;5000177;28;20567;-59
2023/03/13 01:23:53;;;;;;;0.40;0.40;;;;;;;2.77;67.28;97259.78;4985621;28;20097;-61
2023/03/13 01:26:21;;;;;;;0.40;0.40;;;;;;;2.64;67.56;97260.72;4985360;28;20054;-65
2023/03/13 01:28:48;;;;;;;0.40;0.40;;;;;;;2.33;67.31;97210.69;4985775;28;20050;-60
2023/03/13 01:31:20;;;;;;;0.40;0.40;;;;;;;2.56;67.99;97261.47;4985656;28;20054;-66
2023/03/13 01:33:49;;;;;;;0.40;0.40;;;;;;;2.29;67.62;97215.19;4985841;28;20054;-61
2023/03/13 01:36:17;;;;;;;0.40;0.40;;;;;;;2.43;68.10;97248.69;4990802;28;20125;-66
2023/03/13 01:38:48;;;;;;;0.30;0.30;;;;;;;2.31;68.87;97281.28;5005264;28;20054;-66
2023/03/13 01:41:16;;;;;;;0.40;0.40;;;;;;;2.05;69.42;97242.03;5004843;28;20062;-60
2023/03/13 01:43:43;;;;;;;0.40;0.40;;;;;;;2.14;70.44;97283.84;5003822;28;20058;-59
2023/03/13 01:46:17;;;;;;;0.40;0.40;;;;;;;2.05;70.44;97285.72;5004592;28;20061;-60
2023/03/13 01:48:50;;;;;;;0.32;0.32;;;;;;;2.11;70.26;97289.94;5004937;28;20543;-66
2023/03/13 01:51:20;;;;;;;0.40;0.40;;;;;;;2.11;69.86;97295.41;5003457;28;20054;-66
2023/03/13 01:53:52;;;;;;;0.30;0.30;;;;;;;1.96;70.03;97299.31;5005297;28;20155;-67
2023/03/13 01:56:24;;;;;;;0.40;0.40;;;;;;;1.89;70.34;97276.28;5004893;28;20112;-66
2023/03/13 01:58:52;;;;;;;0.40;0.40;;;;;;;2.04;69.68;97305.97;5003557;28;20436;-59
2023/03/13 02:01:19;;;;;;;0.35;0.35;;;;;;;2.12;69.27;97302.50;5004819;28;20557;-67
2023/03/13 02:03:48;;;;;;;0.40;0.40;;;;;;;2.19;68.02;97322.00;5003995;28;20061;-59
2023/03/13 02:06:16;;;;;;;0.40;0.40;;;;;;;1.65;68.54;97226.59;5004940;28;20054;-60
2023/03/13 02:08:50;;;;;;;0.38;0.38;;;;;;;2.10;68.28;97315.66;5004742;28;20050;-66
2023/03/13 02:11:46;;;;;;;0.40;0.40;;;;;;;2.00;69.24;97321.34;5004762;28;20065;-65
2023/03/13 02:14:14;;;;;;;0.40;0.40;;;;;;;2.13;67.59;97318.59;4998974;28;20570;-59
2023/03/13 02:16:46;;;;;;;0.32;0.32;;;;;;;2.01;68.68;97328.44;5004566;28;20061;-59
2023/03/13 02:19:42;;;;;;;0.40;0.40;;;;;;;1.99;69.14;97325.22;5004682;28;20137;-66
2023/03/13 02:22:20;;;;;;;0.38;0.38;;;;;;;1.94;69.23;97328.88;5003812;28;20050;-58
2023/03/13 02:24:47;;;;;;;0.30;0.30;;;;;;;1.94;69.18;97328.06;5004656;28;20060;-60
2023/03/13 02:27:14;;;;;;;0.40;0.40;;;;;;;1.64;68.84;97285.06;5004512;28;20076;-59
2023/03/13 02:29:41;;;;;;;0.40;0.40;;;;;;;1.40;68.40;97253.38;5003096;28;20054;-66
2023/03/13 02:32:08;;;;;;;0.30;0.30;;;;;;;1.94;68.43;97349.91;5004467;28;20058;-62
2023/03/13 02:34:38;;;;;;;0.30;0.30;;;;;;;1.84;68.77;97339.19;5003125;28;20101;-66
2023/03/13 02:37:09;;;;;;;0.35;0.35;;;;;;;1.82;68.58;97344.19;5004583;28;20508;-59
2023/03/13 02:39:40;;;;;;;0.30;0.30;;;;;;;1.92;68.25;97342.00;5002984;28;20054;-59
2023/03/13 02:42:07;;;;;;;0.30;0.30;;;;;;;1.81;68.39;97357.00;5004112;28;20324;-59
2023/03/13 02:44:39;;;;;;;0.30;0.30;;;;;;;1.72;68.59;97349.84;5004362;28;20490;-65
2023/03/13 02:47:06;;;;;;;0.30;0.30;;;;;;;1.18;69.54;97305.16;5004649;28;20065;-58
2023/03/13 02:49:32;;;;;;;0.30;0.30;;;;;;;1.69;69.33;97366.84;5004414;28;20532;-65
2023/03/13 02:52:10;;;;;;;0.40;0.40;;;;;;;1.62;68.88;97363.72;5004363;28;20078;-66
2023/03/13 02:54:39;;;;;;;0.30;0.30;;;;;;;1.25;68.66;97321.91;5004255;28;20108;-65
2023/03/13 02:57:06;;;;;;;0.30;0.30;;;;;;;1.49;70.19;97377.06;5004163;28;20559;-59
2023/03/13 02:59:33;;;;;;;0.30;0.30;;;;;;;1.48;70.97;97378.19;5004167;28;20045;-66
2023/03/13 03:02:00;;;;;;;0.30;0.30;;;;;;;1.52;70.09;97381.91;5004161;28;20141;-60
2023/03/13 03:04:27;;;;;;;0.35;0.35;;;;;;;1.43;70.46;97383.75;5003976;28;20058;-65
2023/03/13 03:06:53;;;;;;;0.32;0.32;;;;;;;1.37;69.52;97379.50;5004058;28;20081;-59
2023/03/13 03:09:22;;;;;;;0.32;0.32;;;;;;;0.16;70.15;97224.78;5002783;28;20591;-66
2023/03/13 03:11:49;;;;;;;0.40;0.40;;;;;;;1.22;71.11;97377.06;5004146;28;20080;-59
2023/03/13 03:14:16;;;;;;;0.30;0.30;;;;;;;0.67;71.08;97282.69;5004372;28;20145;-64
2023/03/13 03:16:43;;;;;;;0.30;0.30;;;;;;;1.20;71.12;97389.41;5004546;28;20124;-59
2023/03/13 03:19:10;;;;;;;0.30;0.30;;;;;;;1.17;71.34;97390.78;5004032;28;20050;-59
2023/03/13 03:21:37;;;;;;;0.30;0.30;;;;;;;0.96;71.72;97383.31;5004321;28;20657;-66
2023/03/13 03:24:04;;;;;;;0.30;0.30;;;;;;;0.62;71.56;97322.84;5018897;28;20292;-62
2023/03/13 03:26:30;;;;;;;0.30;0.30;;;;;;;1.16;71.05;97402.84;5007656;28;20491;-59
2023/03/13 03:28:57;;;;;;;0.30;0.30;;;;;;;1.06;71.18;97410.41;4988003;28;20141;-64
2023/03/13 03:31:24;;;;;;;0.30;0.30;;;;;;;0.99;71.51;97418.16;4987863;28;20501;-64
2023/03/13 03:33:50;;;;;;;0.30;0.30;;;;;;;0.99;71.69;97427.16;5002525;28;20137;-59
2023/03/13 03:36:20;;;;;;;0.30;0.30;;;;;;;0.24;71.93;97311.25;4988586;28;20093;-59
2023/03/13 03:38:48;;;;;;;0.30;0.30;;;;;;;0.96;71.91;97416.84;5007298;28;20046;-64
2023/03/13 03:41:15;;;;;;;0.30;0.30;;;;;;;0.33;72.01;97352.25;5007191;28;20076;-62
2023/03/13 03:43:42;;;;;;;0.30;0.30;;;;;;;0.87;73.25;97432.25;5006737;28;20464;-59
2023/03/13 03:46:09;;;;;;;0.30;0.30;;;;;;;0.39;72.38;97368.22;5006843;28;20542;-64
2023/03/13 03:48:36;;;;;;;0.30;0.30;;;;;;;0.73;71.86;97414.22;5007254;28;20100;-60
2023/03/13 03:51:03;;;;;;;0.30;0.30;;;;;;;0.79;72.69;97430.22;5007477;28;20046;-58
2023/03/13 03:53:31;;;;;;;0.30;0.30;;;;;;;0.23;73.11;97341.50;5006649;28;20137;-65
2023/03/13 03:55:58;;;;;;;0.32;0.32;;;;;;;0.52;71.98;97397.41;5007168;28;20066;-64
2023/03/13 03:58:24;;;;;;;0.30;0.30;;;;;;;0.82;72.68;97437.78;5006737;28;20140;-58
2023/03/13 04:00:51;;;;;;;0.30;0.30;;;;;;;0.81;72.83;97447.09;5007189;28;20054;-65
2023/03/13 04:03:18;;;;;;;0.30;0.30;;;;;;;0.81;72.37;97441.63;5005132;28;20120;-59
2023/03/13 04:05:45;;;;;;;0.30;0.30;;;;;;;0.68;73.41;97445.13;5006811;28;20081;-59
2023/03/13 04:08:11;;;;;;;0.30;0.30;;;;;;;0.68;73.54;97458.75;5006457;28;20053;-64
2023/03/13 04:10:38;;;;;;;0.30;0.30;;;;;;;0.69;72.40;97465.84;5006547;28;20050;-59
2023/03/13 04:13:05;;;;;;;0.30;0.30;;;;;;;0.72;72.58;97462.50;4995043;28;20081;-65
2023/03/13 04:15:31;;;;;;;0.30;0.30;;;;;;;0.57;71.96;97462.72;4986581;28;20073;-65
2023/03/13 04:17:58;;;;;;;0.30;0.30;;;;;;;0.19;71.89;97395.75;5001487;28;20543;-65
2023/03/13 04:20:25;;;;;;;0.30;0.30;;;;;;;0.66;72.36;97468.34;4986758;28;20836;-66
2023/03/13 04:22:52;;;;;;;0.30;0.30;;;;;;;0.13;72.68;97396.94;4986910;28;20164;-58
2023/03/13 04:25:19;;;;;;;0.40;0.40;;;;;;;0.41;73.78;97436.81;4986789;28;20054;-59
2023/03/13 04:27:46;;;;;;;0.30;0.30;;;;;;;0.64;75.14;97482.25;4986649;28;20080;-66
2023/03/13 04:30:13;;;;;;;0.30;0.30;;;;;;;0.76;74.74;97488.06;4986511;28;20057;-61
2023/03/13 04:32:40;;;;;;;0.30;0.30;;;;;;;0.76;73.43;97490.78;4987210;28;20434;-59
2023/03/13 04:35:07;;;;;;;0.30;0.30;;;;;;;0.86;73.41;97485.19;4986303;28;20077;-59
2023/03/13 04:37:34;;;;;;;0.30;0.30;;;;;;;0.98;72.84;97485.50;5011680;28;20060;-65
2023/03/13 04:40:01;;;;;;;0.35;0.35;;;;;;;0.35;72.81;97388.97;5006349;28;20091;-58
2023/03/13 04:42:28;;;;;;;0.30;0.30;;;;;;;0.84;73.15;97479.22;5004538;28;20147;-67
2023/03/13 04:44:54;;;;;;;0.35;0.35;;;;;;;0.95;72.62;97502.47;5006194;28;20050;-58
2023/03/13 04:47:21;;;;;;;0.30;0.30;;;;;;;-0.17;71.77;97332.03;5012699;28;20045;-58
2023/03/13 04:49:47;;;;;;;0.30;0.30;;;;;;;1.00;72.75;97510.56;5025344;28;20107;-64
2023/03/13 04:52:14;;;;;;;0.32;0.32;;;;;;;0.92;72.76;97508.53;5040956;28;20153;-66
2023/03/13 04:54:41;;;;;;;0.40;0.40;;;;;;;0.93;73.19;97515.59;5025634;28;20064;-58
2023/03/13 04:57:07;;;;;;;0.30;0.30;;;;;;;0.90;72.95;97521.63;5025764;28;20050;-66
2023/03/13 04:59:34;;;;;;;0.30;0.30;;;;;;;0.94;73.10;97516.41;5025123;28;20107;-60
2023/03/13 05:02:00;;;;;;;0.30;0.30;;;;;;;0.55;73.30;97475.88;4993360;28;20054;-58
2023/03/13 05:04:27;;;;;;;0.30;0.30;;;;;;;0.50;73.35;97458.78;4985894;28;20050;-64
2023/03/13 05:06:54;;;;;;;0.30;0.30;;;;;;;0.65;73.77;97507.63;4986320;28;20054;-58
2023/03/13 05:09:20;;;;;;;0.30;0.30;;;;;;;0.90;73.61;97526.31;4985682;28;20066;-60
2023/03/13 05:11:49;;;;;;;0.30;0.30;;;;;;;1.01;72.19;97495.81;4985885;28;20144;-65
2023/03/13 05:14:15;;;;;;;0.30;0.30;;;;;;;0.93;72.48;97501.94;4985930;28;20910;-58
2023/03/13 05:16:42;;;;;;;0.30;0.30;;;;;;;1.16;72.07;97539.22;4986134;28;20116;-65
2023/03/13 05:19:09;;;;;;;0.40;0.40;;;;;;;1.17;72.67;97538.09;4986329;28;20054;-58
2023/03/13 05:21:35;;;;;;;0.30;0.30;;;;;;;1.33;72.16;97536.75;4985957;28;20126;-58
2023/03/13 05:24:02;;;;;;;0.32;0.32;;;;;;;1.50;72.18;97542.44;5000096;28;20092;-65
2023/03/13 05:26:29;;;;;;;0.40;0.40;;;;;;;1.54;72.05;97538.03;5000303;28;20051;-65
2023/03/13 05:28:55;;;;;;;0.30;0.30;;;;;;;1.84;71.36;97535.81;4985011;28;20061;-64
2023/03/13 05:31:22;;;;;;;0.40;0.40;;;;;;;2.05;69.55;97553.44;4985436;28;20074;-66
2023/03/13 05:33:49;;;;;;;0.40;0.40;;;;;;;2.14;69.36;97546.16;4985297;28;20054;-65
2023/03/13 05:36:15;;;;;;;0.40;0.40;;;;;;;1.89;69.94;97500.22;4985318;28;20050;-66
2023/03/13 05:38:42;;;;;;;0.40;0.40;;;;;;;2.19;69.26;97521.47;5020294;28;20053;-66
2023/03/13 05:41:09;;;;;;;0.40;0.40;;;;;;;2.47;68.82;97539.44;5024624;28;20057;-66
2023/03/13 05:43:35;;;;;;;0.40;0.40;;;;;;;2.61;68.47;97534.75;5024863;28;20150;-59
2023/03/13 05:46:02;;;;;;;0.40;0.40;;;;;;;2.64;67.64;97518.53;5024307;28;20057;-59
2023/03/13 05:48:28;;;;;;;0.40;0.40;;;;;;;2.71;67.06;97518.13;5024112;28;20058;-65
2023/03/13 05:50:55;;;;;;;0.40;0.40;;;;;;;2.96;67.21;97536.69;5028654;28;20045;-67
2023/03/13 05:53:22;;;;;;;0.40;0.40;;;;;;;2.62;66.08;97470.75;5005301;28;20057;-59
2023/03/13 05:55:48;;;;;;;0.40;0.40;;;;;;;2.74;66.80;97495.63;5004433;28;20097;-59
2023/03/13 05:58:15;;;;;;;0.40;0.40;;;;;;;3.11;66.39;97544.56;5003001;28;20054;-66
2023/03/13 06:00:42;;;;;;;0.50;0.50;;;;;;;3.17;65.00;97515.94;5004660;28;20072;-59
2023/03/13 06:03:09;;;;;;;0.40;0.40;;;;;;;3.46;64.47;97560.09;5004264;28;20050;-60
2023/03/13 06:05:39;;;;;;;0.50;0.50;;;;;;;3.71;63.93;97562.19;5004326;28;20053;-59
2023/03/13 06:08:06;;;;;;;0.40;0.40;;;;;;;3.66;63.71;97523.97;4985074;28;20124;-59
2023/03/13 06:10:32;;;;;;;0.50;0.50;;;;;;;4.07;64.13;97562.88;4984653;28;20073;-59
2023/03/13 06:12:59;;;;;;;0.50;0.50;;;;;;;4.25;63.41;97536.31;4999662;28;20050;-59
2023/03/13 06:15:51;;;;;;;0.40;0.40;;;;;;;4.61;61.69;97554.19;4984588;28;20126;-60
2023/03/13 06:18:18;;;;;;;0.50;0.50;;;;;;;4.85;60.83;97561.16;4984093;28;20051;-57
2023/03/13 06:20:46;;;;;;;0.50;0.50;;;;;;;4.72;60.87;97502.53;4984601;28;20050;-65
2023/03/13 06:23:13;;;;;;;0.50;0.50;;;;;;;5.37;60.58;97551.81;4984569;28;20109;-60
2023/03/13 06:25:40;;;;;;;0.40;0.40;;;;;;;4.98;58.44;97467.66;4984415;28;20472;-60
2023/03/13 06:28:06;;;;;;;0.50;0.50;;;;;;;5.71;58.39;97551.75;4984336;28;20054;-68
2023/03/13 06:30:33;;;;;;;0.60;0.60;;;;;;;5.94;57.37;97561.44;4984546;28;20116;-64
2023/03/13 06:33:00;;;;;;;0.50;0.50;;;;;;;6.05;56.96;97558.00;4999515;28;20142;-62
2023/03/13 06:35:27;;;;;;;0.60;0.60;;;;;;;6.29;55.99;97557.44;4988739;28;20291;-59
2023/03/13 06:37:54;;;;;;;0.60;0.60;;;;;;;6.15;55.22;97556.81;5021028;28;20050;-58
2023/03/13 06:40:20;;;;;;;0.50;0.50;;;;;;;6.59;54.85;97550.78;5007126;28;20126;-59
2023/03/13 06:42:47;;;;;;;0.50;0.50;;;;;;;6.11;54.74;97435.69;5013828;28;20053;-65
2023/03/13 06:45:14;;;;;;;0.60;0.60;;;;;;;6.75;54.35;97516.03;5002888;28;20085;-60
2023/03/13 06:47:40;;;;;;;0.52;0.52;;;;;;;6.99;54.10;97545.69;5002345;28;20125;-60
2023/03/13 06:50:08;;;;;;;0.50;0.50;;;;;;;6.80;53.51;97480.06;5010314;28;20092;-56
2023/03/13 06:52:36;;;;;;;0.50;0.50;;;;;;;6.21;53.57;97362.19;4985895;28;20050;-59
2023/03/13 06:55:10;;;;;;;0.60;0.60;;;;;;;7.30;52.66;97478.00;4982218;28;20054;-62
2023/03/13 06:57:37;;;;;;;0.60;0.60;;;;;;;7.60;52.58;97553.94;4982551;28;20055;-61
2023/03/13 07:00:05;;;;;;;0.60;0.60;;;;;;;7.13;52.02;97412.06;4984466;28;20161;-60
2023/03/13 07:02:31;;;;;;;0.60;0.60;;;;;;;8.26;52.00;97542.88;4987443;28;20426;-57
2023/03/13 07:04:58;;;;;;;0.60;0.60;;;;;;;8.31;50.59;97528.84;4986888;28;20089;-59
2023/03/13 07:07:25;;;;;;;0.70;0.70;;;;;;;7.73;49.63;97420.47;4986134;28;20576;-61
2023/03/13 07:09:58;;;;;;;0.60;0.60;;;;;;;8.03;48.49;97434.09;4986345;28;20137;-62
2023/03/13 07:12:24;;;;;;;0.68;0.68;;;;;;;8.50;48.21;97509.78;4986984;28;20593;-62
2023/03/13 07:14:51;;;;;;;0.73;0.73;;;;;;;8.60;47.57;97514.84;4986648;28;20078;-62
2023/03/13 07:17:18;;;;;;;0.70;0.70;;;;;;;9.05;46.52;97532.03;4987069;28;20050;-61
2023/03/13 07:19:45;;;;;;;0.68;0.68;;;;;;;9.05;46.23;97548.63;4989463;28;20124;-57
2023/03/13 07:22:12;;;;;;;0.70;0.70;;;;;;;8.63;45.78;97498.38;4987382;28;20073;-59
2023/03/13 07:24:39;;;;;;;0.82;0.82;;;;;;;9.35;45.03;97530.56;4986391;28;20078;-60
2023/03/13 07:27:05;;;;;;;0.70;0.70;;;;;;;9.03;45.16;97465.25;4985181;28;20051;-62
2023/03/13 07:29:33;;;;;;;0.70;0.70;;;;;;;9.58;44.86;97531.63;4989635;28;20056;-61
2023/03/13 07:32:00;;;;;;;0.80;0.80;;;;;;;9.45;45.16;97535.63;4986787;28;20054;-61
2023/03/13 07:34:27;;;;;;;0.80;0.80;;;;;;;9.59;44.96;97513.91;4985166;28;20510;-60
2023/03/13 07:36:54;;;;;;;0.73;0.73;;;;;;;9.92;44.09;97528.25;4983489;28;20104;-69
2023/03/13 07:39:20;;;;;;;0.80;0.80;;;;;;;9.66;43.60;97471.81;4984059;28;20081;-61
2023/03/13 07:41:47;;;;;;;0.80;0.80;;;;;;;9.92;43.59;97525.50;4983518;28;20165;-60
2023/03/13 07:44:13;;;;;;;0.70;0.70;;;;;;;9.34;43.43;97512.41;4987534;28;20078;-61
2023/03/13 07:46:40;;;;;;;0.75;0.75;;;;;;;9.80;44.06;97536.59;4986194;28;20553;-57
2023/03/13 07:49:07;;;;;;;0.80;0.80;;;;;;;10.21;43.51;97536.19;5000851;28;20058;-60
2023/03/13 07:51:34;;;;;;;0.80;0.80;;;;;;;10.24;43.51;97529.94;4983899;28;20058;-61
2023/03/13 07:54:09;;;;;;;0.80;0.80;;;;;;;10.47;43.21;97528.16;4985763;28;20050;-58
2023/03/13 07:56:37;;;;;;;0.90;0.90;;;;;;;10.84;42.59;97531.44;4985925;28;20073;-60
2023/03/13 07:59:04;;;;;;;0.80;0.80;;;;;;;10.91;41.62;97556.53;4986425;28;20058;-59
2023/03/13 08:01:31;;;;;;;0.90;0.90;;;;;;;10.63;42.12;97459.72;4999839;28;20057;-58
2023/03/13 08:04:00;;;;;;;0.90;0.90;;;;;;;11.07;41.87;97523.22;4986314;28;20130;-61
2023/03/13 08:06:29;;;;;;;0.90;0.90;;;;;;;11.15;41.29;97525.00;4985578;28;20064;-62
2023/03/13 08:08:59;;;;;;;0.90;0.90;;;;;;;11.08;40.97;97497.13;4986100;28;20061;-61
2023/03/13 08:11:27;;;;;;;0.90;0.90;;;;;;;8.34;40.31;97075.53;4988155;28;20148;-61
2023/03/13 08:13:56;;;;;;;0.90;0.90;;;;;;;10.65;40.41;97460.13;4990321;28;20461;-61
2023/03/13 08:16:25;;;;;;;1.00;1.00;;;;;;;10.99;40.64;97471.56;4986495;28;20054;-57
2023/03/13 08:18:54;;;;;;;0.90;0.90;;;;;;;10.88;39.92;97509.31;4986539;28;20046;-59
2023/03/13 08:21:27;;;;;;;0.90;0.90;;;;;;;9.74;40.51;97460.56;4985867;28;20512;-62
2023/03/13 08:23:56;;;;;;;0.85;0.85;;;;;;;10.40;39.94;97505.03;4991132;28;20080;-62
2023/03/13 08:26:25;;;;;;;0.90;0.90;;;;;;;8.48;40.55;97137.44;4985636;28;21224;-62
2023/03/13 08:28:58;;;;;;;0.90;0.90;;;;;;;10.46;39.74;97415.75;4985633;28;20058;-64
2023/03/13 08:31:27;;;;;;;0.90;0.90;;;;;;;11.12;39.66;97470.28;4984009;28;20423;-58
2023/03/13 08:33:54;;;;;;;0.90;0.90;;;;;;;9.73;38.42;97236.88;4986221;28;20054;-60
2023/03/13 08:36:26;;;;;;;0.90;0.90;;;;;;;10.50;38.09;97460.16;4985751;28;20058;-59
2023/03/13 08:38:56;;;;;;;0.85;0.85;;;;;;;10.21;38.44;97502.97;4985588;28;20553;-60
2023/03/13 08:41:25;;;;;;;0.80;0.80;;;;;;;9.94;38.56;97420.00;4985432;28;20058;-64
2023/03/13 08:43:52;;;;;;;0.85;0.85;;;;;;;10.63;38.01;97476.31;4985956;28;20572;-60
2023/03/13 08:46:19;;;;;;;0.88;0.88;;;;;;;10.95;33.13;97476.25;4995077;28;20081;-60
2023/03/13 08:48:50;;;;;;;0.90;0.90;;;;;;;11.28;31.94;97512.63;4986850;28;20058;-61
2023/03/13 08:51:19;;;;;;;0.90;0.90;;;;;;;9.81;32.41;97394.38;4985407;28;20059;-58
2023/03/13 08:53:46;;;;;;;0.90;0.90;;;;;;;10.41;26.59;97438.22;4971164;28;20485;-59
2023/03/13 08:56:17;;;;;;;1.00;1.00;;;;;;;10.87;26.62;97463.38;4985516;28;20081;-63
2023/03/13 08:58:51;;;;;;;0.90;0.90;;;;;;;11.19;26.52;97518.38;4985349;28;20132;-63
2023/03/13 09:01:20;;;;;;;0.90;0.90;;;;;;;11.31;25.15;97520.22;4985357;28;20073;-63
2023/03/13 09:03:46;;;;;;;0.90;0.90;;;;;;;10.22;26.30;97388.31;4985234;28;20539;-63
2023/03/13 09:06:13;;;;;;;0.93;0.93;;;;;;;9.57;28.19;97236.09;4984327;28;20516;-58
2023/03/13 09:08:40;;;;;;;1.00;1.00;;;;;;;11.40;28.41;97509.69;4984245;28;20062;-63
2023/03/13 09:11:10;;;;;;;0.90;0.90;;;;;;;10.28;28.88;97334.25;4984249;28;20050;-61
2023/03/13 09:13:40;;;;;;;0.90;0.90;;;;;;;10.86;30.16;97490.28;4988874;28;20324;-62
2023/03/13 09:16:10;;;;;;;0.85;0.85;;;;;;;11.18;30.66;97471.59;4984710;28;20117;-62
2023/03/13 09:18:37;;;;;;;0.90;0.90;;;;;;;11.14;30.53;97457.69;4974354;28;20051;-59
2023/03/13 09:21:34;;;;;;;1.00;1.00;;;;;;;11.73;29.72;97493.38;4983568;28;20073;-57
2023/03/13 09:24:01;;;;;;;0.90;0.90;;;;;;;11.12;30.21;97403.75;4980889;28;20057;-61
2023/03/13 09:26:28;;;;;;;0.90;0.90;;;;;;;11.29;30.31;97494.81;4984507;28;20054;-61
2023/03/13 09:28:56;;;;;;;1.00;1.00;;;;;;;11.14;29.79;97423.59;4984667;28;20057;-56
2023/03/13 09:31:26;;;;;;;1.00;1.00;;;;;;;11.53;29.71;97444.59;4985026;28;20316;-63
2023/03/13 09:33:53;;;;;;;0.93;0.93;;;;;;;11.66;30.31;97423.88;4983145;28;20155;-59
2023/03/13 09:36:22;;;;;;;1.00;1.00;;;;;;;12.22;29.99;97477.63;4986979;28;20104;-62
2023/03/13 09:38:51;;;;;;;0.95;0.95;;;;;;;10.97;31.21;97374.91;4985100;28;20050;-60
2023/03/13 09:41:18;;;;;;;1.00;1.00;;;;;;;11.59;30.49;97462.53;4975341;28;20604;-61
2023/03/13 09:44:14;;;;;;;1.00;1.00;;;;;;;11.10;31.13;97461.50;4984643;28;20124;-57
2023/03/13 09:47:06;;;;;;;0.90;0.90;;;;;;;11.25;30.81;97460.66;4985384;28;20077;-64
2023/03/13 09:50:05;;;;;;;1.00;1.00;;;;;;;11.66;29.81;97473.81;4984573;28;20579;-64
2023/03/13 09:52:39;;;;;;;0.90;0.90;;;;;;;11.35;29.48;97412.94;4980909;28;20128;-62
2023/03/13 09:55:23;;;;;;;0.93;0.93;;;;;;;11.43;29.97;97393.28;4997784;28;20132;-60
2023/03/13 09:57:54;;;;;;;1.00;1.00;;;;;;;11.69;28.91;97400.94;4984914;28;20046;-60
2023/03/13 10:00:30;;;;;;;1.00;1.00;;;;;;;12.09;29.14;97454.03;4969052;28;20050;-58
2023/03/13 10:03:16;;;;;;;1.00;1.00;;;;;;;11.95;28.39;97442.63;4979876;28;20042;-58
2023/03/13 10:05:49;;;;;;;0.93;0.93;;;;;;;10.94;27.81;97405.34;4983026;28;20058;-58
2023/03/13 10:08:21;;;;;;;0.90;0.90;;;;;;;11.44;26.99;97447.59;4984040;28;20162;-59
2023/03/13 10:11:11;;;;;;;0.90;0.90;;;;;;;11.37;26.82;97421.69;4981849;28;20420;-63
2023/03/13 10:13:49;;;;;;;0.90;0.90;;;;;;;11.51;27.02;97421.94;4991423;28;20046;-57
2023/03/13 10:16:28;;;;;;;1.10;1.10;;;;;;;11.99;26.55;97443.53;4984559;28;20050;-62
2023/03/13 10:18:58;;;;;;;0.90;0.90;;;;;;;11.61;27.25;97365.88;4983746;28;20086;-57
2023/03/13 10:21:32;;;;;;;1.08;1.08;;;;;;;12.34;26.45;97438.56;4984246;28;20050;-63
2023/03/13 10:24:13;;;;;;;1.00;1.00;;;;;;;12.01;26.85;97352.34;4977364;28;20054;-59
2023/03/13 10:26:39;;;;;;;1.10;1.10;;;;;;;12.61;27.06;97381.03;4980077;28;20513;-58
2023/03/13 10:29:15;;;;;;;1.10;1.10;;;;;;;12.88;26.97;97430.66;4984552;28;20389;-61
2023/03/13 10:31:49;;;;;;;1.10;1.10;;;;;;;12.22;26.74;97430.41;4982278;28;20090;-61
2023/03/13 10:34:16;;;;;;;1.00;1.00;;;;;;;12.16;27.06;97426.34;4986603;28;20506;-61
2023/03/13 10:36:48;;;;;;;0.90;0.90;;;;;;;10.97;26.83;97346.41;4988370;28;20058;-58
2023/03/13 10:39:21;;;;;;;1.00;1.00;;;;;;;11.42;27.46;97429.72;4986682;28;20058;-58
2023/03/13 10:41:49;;;;;;;0.90;0.90;;;;;;;11.53;27.37;97425.16;4987979;28;20154;-58
2023/03/13 10:44:21;;;;;;;0.90;0.90;;;;;;;11.90;27.58;97387.44;4988480;28;20062;-62
2023/03/13 10:46:50;;;;;;;0.90;0.90;;;;;;;12.27;27.22;97396.78;4972534;28;20057;-62
2023/03/13 10:49:21;;;;;;;1.00;1.00;;;;;;;12.04;27.09;97412.66;4983673;28;20054;-62
2023/03/13 10:51:51;;;;;;;0.95;0.95;;;;;;;12.03;27.63;97392.44;4998978;28;20264;-61
2023/03/13 10:54:36;;;;;;;1.00;1.00;;;;;;;12.53;27.30;97335.69;4988030;28;20469;-62
2023/03/13 10:57:22;;;;;;;1.02;1.02;;;;;;;13.26;26.80;97376.78;4986606;28;20441;-59
2023/03/13 10:59:50;;;;;;;1.00;1.00;;;;;;;13.32;25.63;97389.16;4984620;28;20050;-63
2023/03/13 11:02:36;;;;;;;1.20;1.20;;;;;;;13.57;25.67;97367.97;4990883;28;20054;-60
2023/03/13 11:05:24;;;;;;;1.10;1.10;;;;;;;12.43;26.35;97364.09;5006456;28;20594;-60
2023/03/13 11:07:52;;;;;;;1.00;1.00;;;;;;;10.58;26.79;97002.94;5004217;28;20137;-60
2023/03/13 11:10:35;;;;;;;1.10;1.10;;;;;;;12.94;26.78;97361.63;4991702;28;20052;-59
2023/03/13 11:13:02;;;;;;;;;;;;;;;12.88;26.21;97355.59;5004813;28;20057;-58
2023/03/13 11:15:50;;;;;;;1.00;1.00;;;;;;;12.77;26.61;97307.38;5006688;28;19933;-62
2023/03/13 11:18:42;;;;;;;0.90;0.90;;;;;;;12.77;27.22;97362.97;5002933;28;20578;-60
2023/03/13 11:21:19;;;;;;;1.00;1.00;;;;;;;12.56;26.56;97373.81;4998202;28;20104;-61
2023/03/13 11:23:53;;;;;;;0.90;0.90;;;;;;;13.37;26.78;97358.22;5006546;28;20455;-60
2023/03/13 11:26:19;;;;;;;;;;;;;;;13.48;25.99;97353.56;5004474;28;20050;-58
2023/03/13 11:28:57;;;;;;;1.05;1.05;;;;;;;12.55;26.22;97205.47;5008300;28;20003;-58
2023/03/13 11:31:39;;;;;;;1.10;1.10;;;;;;;13.97;26.89;97345.69;5006558;28;20068;-65
2023/03/13 11:34:30;;;;;;;1.10;1.10;;;;;;;14.14;25.52;97341.44;5006017;28;20054;-60
2023/03/13 11:37:10;;;;;;;1.40;1.40;;;;;;;13.83;26.12;97252.88;5006224;28;20132;-63
2023/03/13 11:39:45;;;;;;;1.20;1.20;;;;;;;14.65;24.50;97333.88;5009537;28;20046;-60
2023/03/13 11:42:28;;;;;;;1.50;1.50;;;;;;;14.47;25.40;97335.72;5005710;28;20058;-61
2023/03/13 11:45:01;;;;;;;1.10;1.10;;;;;;;14.52;25.11;97330.59;5016906;28;20073;-64
2023/03/13 11:47:55;;;;;;;1.33;1.33;;;;;;;14.59;25.87;97319.47;5003279;28;20045;-58
2023/03/13 11:50:43;;;;;;;1.30;1.30;;;;;;;14.18;26.19;97320.00;5020422;28;20115;-65
2023/03/13 11:53:32;;;;;;;1.30;1.30;;;;;;;14.64;25.39;97310.75;5005158;28;20164;-64